createdAt,value
2023-03-10T00:02:13.004Z,1.60
2023-03-10T00:04:43.653Z,1.13
2023-03-10T00:07:11.757Z,1.30
2023-03-10T00:09:39.511Z,1.40
2023-03-10T00:12:08.433Z,2.10
2023-03-10T00:14:45.185Z,2.10
2023-03-10T00:17:13.071Z,2.33
2023-03-10T00:19:40.765Z,2.43
2023-03-10T00:22:14.166Z,2.50
2023-03-10T00:24:43.130Z,2.03
2023-03-10T00:27:13.673Z,1.77
2023-03-10T00:29:43.784Z,2.00
2023-03-10T00:32:19.340Z,2.00
2023-03-10T00:34:47.533Z,2.07
2023-03-10T00:37:16.770Z,2.23
2023-03-10T00:39:49.380Z,1.83
2023-03-10T00:42:19.624Z,1.60
2023-03-10T00:44:55.870Z,2.13
2023-03-10T00:47:23.649Z,2.90
2023-03-10T00:49:51.404Z,1.70
2023-03-10T00:52:19.178Z,1.60
2023-03-10T00:54:47.134Z,1.50
2023-03-10T00:57:17.817Z,1.80
2023-03-10T00:59:50.493Z,2.10
2023-03-10T01:02:20.119Z,1.40
2023-03-10T01:04:49.511Z,1.73
2023-03-10T01:07:17.412Z,1.90
2023-03-10T01:09:45.464Z,2.17
2023-03-10T01:12:13.212Z,2.40
2023-03-10T01:14:41.468Z,1.80
2023-03-10T01:17:11.361Z,1.93
2023-03-10T01:19:40.483Z,1.87
2023-03-10T01:22:08.216Z,1.70
2023-03-10T01:24:35.984Z,1.33
2023-03-10T01:27:03.851Z,1.60
2023-03-10T01:29:33.461Z,1.70
2023-03-10T01:32:01.613Z,2.07
2023-03-10T01:36:58.873Z,1.73
2023-03-10T01:39:26.658Z,1.63
2023-03-10T01:41:54.751Z,1.30
2023-03-10T01:44:25.343Z,1.67
2023-03-10T01:46:59.675Z,2.10
2023-03-10T01:49:32.314Z,1.40
2023-03-10T01:52:05.345Z,1.33
2023-03-10T01:54:39.891Z,1.63
2023-03-10T01:57:18.171Z,1.23
2023-03-10T01:59:49.631Z,1.20
2023-03-10T02:02:20.026Z,1.10
2023-03-10T02:04:52.867Z,0.90
2023-03-10T02:07:25.103Z,1.37
2023-03-10T02:09:53.537Z,1.30
2023-03-10T02:12:24.345Z,1.00
2023-03-10T02:14:55.295Z,0.90
2023-03-10T02:17:26.598Z,0.97
2023-03-10T02:20:10.250Z,1.20
2023-03-10T02:22:40.143Z,1.00
2023-03-10T02:25:17.748Z,1.00
2023-03-10T02:27:49.687Z,0.80
2023-03-10T02:30:22.397Z,1.13
2023-03-10T02:32:54.340Z,1.13
2023-03-10T02:35:23.095Z,0.97
2023-03-10T02:37:51.707Z,1.10
2023-03-10T02:40:33.969Z,1.00
2023-03-10T02:43:05.504Z,1.27
2023-03-10T02:45:34.788Z,0.93
2023-03-10T02:48:05.743Z,0.90
2023-03-10T02:50:40.506Z,0.77
2023-03-10T02:53:12.740Z,1.17
2023-03-10T02:55:40.792Z,0.60
2023-03-10T02:58:10.690Z,0.87
2023-03-10T03:00:39.471Z,0.80
2023-03-10T03:03:12.358Z,0.90
2023-03-10T03:05:45.945Z,0.60
2023-03-10T03:08:17.117Z,0.90
2023-03-10T03:10:47.502Z,0.90
2023-03-10T03:13:17.390Z,0.90
2023-03-10T03:15:48.763Z,0.93
2023-03-10T03:18:24.776Z,0.77
2023-03-10T03:20:54.250Z,0.80
2023-03-10T03:23:22.030Z,1.10
2023-03-10T03:25:49.823Z,1.00
2023-03-10T03:28:19.615Z,1.00
2023-03-10T03:30:50.024Z,1.00
2023-03-10T03:33:18.184Z,0.67
2023-03-10T03:35:52.776Z,0.77
2023-03-10T03:38:20.677Z,0.57
2023-03-10T03:40:48.490Z,0.70
2023-03-10T03:43:16.281Z,0.70
2023-03-10T03:45:45.829Z,0.90
2023-03-10T03:48:27.017Z,0.90
2023-03-10T03:50:55.070Z,0.70
2023-03-10T03:53:23.244Z,0.63
2023-03-10T03:55:54.059Z,0.80
2023-03-10T03:58:24.747Z,1.00
2023-03-10T04:00:56.836Z,0.80
2023-03-10T04:03:24.964Z,0.80
2023-03-10T04:05:57.166Z,0.80
2023-03-10T04:08:24.916Z,0.63
2023-03-10T04:10:58.366Z,0.70
2023-03-10T04:13:26.254Z,0.80
2023-03-10T04:16:06.707Z,0.80
2023-03-10T04:18:34.663Z,0.70
2023-03-10T04:21:05.159Z,0.70
2023-03-10T04:23:32.955Z,0.97
2023-03-10T04:26:04.829Z,1.10
2023-03-10T04:28:32.766Z,0.90
2023-03-10T04:31:04.398Z,1.00
2023-03-10T04:33:40.068Z,0.87
2023-03-10T04:36:13.246Z,1.13
2023-03-10T04:38:41.720Z,0.70
2023-03-10T04:41:12.685Z,0.80
2023-03-10T04:43:42.659Z,0.97
2023-03-10T04:46:18.954Z,0.90
2023-03-10T04:48:49.117Z,0.80
2023-03-10T04:51:16.926Z,1.17
2023-03-10T04:53:47.048Z,1.90
2023-03-10T04:56:17.535Z,1.73
2023-03-10T04:58:45.512Z,0.90
2023-03-10T05:01:16.957Z,1.10
2023-03-10T05:03:46.414Z,1.20
2023-03-10T05:06:17.255Z,0.90
2023-03-10T05:08:47.245Z,0.90
2023-03-10T05:11:15.175Z,1.10
2023-03-10T05:13:43.045Z,3.30
2023-03-10T05:16:16.291Z,5.80
2023-03-10T05:18:47.670Z,4.90
2023-03-10T05:21:15.742Z,3.30
2023-03-10T05:23:47.525Z,3.60
2023-03-10T05:26:15.483Z,3.60
2023-03-10T05:28:50.470Z,2.83
2023-03-10T05:31:25.871Z,2.10
2023-03-10T05:33:54.416Z,1.80
2023-03-10T05:36:22.593Z,1.70
2023-03-10T05:38:51.909Z,1.50
2023-03-10T05:41:23.747Z,1.73
2023-03-10T05:43:51.553Z,1.60
2023-03-10T05:46:22.742Z,1.60
2023-03-10T05:48:51.938Z,1.80
2023-03-10T05:51:20.118Z,1.30
2023-03-10T05:53:50.696Z,1.03
2023-03-10T05:56:24.852Z,0.93
2023-03-10T05:58:52.914Z,1.37
2023-03-10T06:01:25.013Z,1.60
2023-03-10T06:03:55.425Z,0.93
2023-03-10T06:06:23.226Z,1.40
2023-03-10T06:08:54.078Z,1.10
2023-03-10T06:11:22.004Z,1.47
2023-03-10T06:13:50.116Z,1.60
2023-03-10T06:16:19.307Z,1.37
2023-03-10T06:18:49.010Z,1.00
2023-03-10T06:21:16.765Z,1.23
2023-03-10T06:23:46.001Z,1.67
2023-03-10T06:26:17.462Z,0.90
2023-03-10T06:28:47.063Z,1.00
2023-03-10T06:31:17.107Z,0.80
2023-03-10T06:33:45.690Z,1.03
2023-03-10T06:36:16.033Z,1.13
2023-03-10T06:38:44.663Z,0.73
2023-03-10T06:41:14.540Z,0.90
2023-03-10T06:43:42.475Z,1.47
2023-03-10T06:46:14.191Z,1.07
2023-03-10T06:48:43.267Z,0.70
2023-03-10T06:51:13.792Z,0.70
2023-03-10T06:53:45.775Z,0.50
2023-03-10T06:56:16.469Z,1.30
2023-03-10T06:58:45.247Z,0.50
2023-03-10T07:01:25.576Z,0.50
2023-03-10T07:03:53.641Z,0.50
2023-03-10T07:06:24.004Z,0.77
2023-03-10T07:08:56.523Z,0.70
2023-03-10T07:11:26.020Z,0.60
2023-03-10T07:13:54.750Z,0.40
2023-03-10T07:16:25.741Z,0.60
2023-03-10T07:18:53.943Z,0.63
2023-03-10T07:21:22.388Z,0.90
2023-03-10T07:23:53.412Z,0.50
2023-03-10T07:26:24.383Z,0.70
2023-03-10T07:28:52.436Z,0.67
2023-03-10T07:31:20.442Z,0.50
2023-03-10T07:33:55.136Z,0.50
2023-03-10T07:36:24.415Z,0.60
2023-03-10T07:38:53.604Z,0.70
2023-03-10T07:41:24.688Z,0.90
2023-03-10T07:43:54.082Z,1.03
2023-03-10T07:46:27.936Z,1.93
2023-03-10T07:48:56.502Z,0.93
2023-03-10T07:51:26.005Z,0.63
2023-03-10T07:53:56.540Z,1.27
2023-03-10T07:56:27.058Z,1.00
2023-03-10T07:58:57.391Z,0.60
2023-03-10T08:01:39.056Z,0.93
2023-03-10T08:04:08.171Z,0.80
2023-03-10T08:06:40.211Z,1.00
2023-03-10T08:09:10.336Z,0.73
2023-03-10T08:11:38.531Z,0.57
2023-03-10T08:14:06.905Z,0.77
2023-03-10T08:16:34.742Z,0.70
2023-03-10T08:19:02.783Z,0.90
2023-03-10T08:21:30.723Z,0.80
2023-03-10T08:23:58.897Z,0.70
2023-03-10T08:26:31.367Z,0.50
2023-03-10T08:28:59.369Z,0.57
2023-03-10T08:31:27.996Z,0.50
2023-03-10T08:33:56.698Z,0.60
2023-03-10T08:36:26.459Z,0.70
2023-03-10T08:38:56.036Z,0.80
2023-03-10T08:41:41.975Z,0.70
2023-03-10T08:44:15.246Z,0.63
2023-03-10T08:46:51.818Z,0.70
2023-03-10T08:49:22.586Z,0.57
2023-03-10T08:51:51.273Z,0.70
2023-03-10T08:54:21.682Z,0.57
2023-03-10T08:56:54.268Z,0.67
2023-03-10T08:59:22.429Z,0.60
2023-03-10T09:01:52.339Z,0.83
2023-03-10T09:04:20.530Z,0.70
2023-03-10T09:06:50.090Z,0.60
2023-03-10T09:09:19.990Z,0.70
2023-03-10T09:11:57.678Z,0.67
2023-03-10T09:14:25.892Z,0.60
2023-03-10T09:16:56.895Z,0.70
2023-03-10T09:19:25.208Z,0.80
2023-03-10T09:21:53.391Z,0.60
2023-03-10T09:24:22.435Z,0.40
2023-03-10T09:26:50.480Z,0.70
2023-03-10T09:29:36.417Z,0.90
2023-03-10T09:32:10.322Z,0.50
2023-03-10T09:34:38.653Z,0.67
2023-03-10T09:37:10.127Z,0.67
2023-03-10T09:39:47.679Z,0.60
2023-03-10T09:42:48.471Z,0.60
2023-03-10T09:45:31.518Z,1.00
2023-03-10T09:48:15.884Z,0.80
2023-03-10T09:50:48.083Z,0.50
2023-03-10T09:53:28.853Z,0.70
2023-03-10T09:56:00.074Z,1.47
2023-03-10T09:58:41.966Z,0.70
2023-03-10T10:01:28.359Z,0.93
2023-03-10T10:03:59.774Z,0.50
2023-03-10T10:06:31.986Z,0.80
2023-03-10T10:09:05.897Z,1.03
2023-03-10T10:11:34.417Z,0.50
2023-03-10T10:14:28.576Z,0.83
2023-03-10T10:17:04.250Z,1.03
2023-03-10T10:19:36.990Z,0.70
2023-03-10T10:22:15.377Z,0.90
2023-03-10T10:25:00.456Z,0.90
2023-03-10T10:30:32.232Z,0.93
2023-03-10T10:33:03.632Z,1.13
2023-03-10T10:35:34.161Z,1.37
2023-03-10T10:38:04.910Z,1.13
2023-03-10T10:40:38.929Z,1.03
2023-03-10T10:43:07.843Z,0.80
2023-03-10T10:45:38.347Z,0.60
2023-03-10T10:48:08.320Z,0.90
2023-03-10T10:50:42.116Z,0.80
2023-03-10T10:53:21.154Z,0.70
2023-03-10T10:56:01.213Z,0.90
2023-03-10T10:58:31.668Z,0.87
2023-03-10T11:01:06.068Z,1.00
2023-03-10T11:03:40.630Z,1.30
2023-03-10T11:06:16.826Z,1.10
2023-03-10T11:08:53.435Z,1.00
2023-03-10T11:11:26.287Z,1.17
2023-03-10T11:14:05.314Z,1.03
2023-03-10T11:16:38.617Z,1.27
2023-03-10T11:19:19.161Z,1.37
2023-03-10T11:21:53.126Z,0.70
2023-03-10T11:24:27.803Z,0.80
2023-03-10T11:27:00.715Z,0.80
2023-03-10T11:29:49.240Z,0.80
2023-03-10T11:32:21.967Z,0.70
2023-03-10T11:34:54.074Z,0.90
2023-03-10T11:37:29.831Z,0.90
2023-03-10T11:40:09.159Z,0.70
2023-03-10T11:42:42.429Z,0.70
2023-03-10T11:45:28.352Z,0.67
2023-03-10T11:48:02.983Z,0.80
2023-03-10T11:50:38.668Z,0.60
2023-03-10T11:53:11.505Z,0.73
2023-03-10T11:55:41.429Z,0.43
2023-03-10T11:58:24.456Z,0.73
2023-03-10T12:00:54.260Z,0.60
2023-03-10T12:03:34.706Z,0.50
2023-03-10T12:06:11.830Z,1.33
2023-03-10T12:08:40.218Z,1.07
2023-03-10T12:11:15.357Z,0.70
2023-03-10T12:13:46.546Z,0.60
2023-03-10T12:16:21.913Z,0.60
2023-03-10T12:19:05.755Z,0.43
2023-03-10T12:21:35.992Z,0.40
2023-03-10T12:24:05.182Z,0.47
2023-03-10T12:27:01.253Z,0.50
2023-03-10T12:29:43.777Z,0.50
2023-03-10T12:32:50.044Z,0.60
2023-03-10T12:35:50.899Z,0.73
2023-03-10T12:38:32.991Z,0.50
2023-03-10T12:41:07.714Z,0.40
2023-03-10T12:44:00.060Z,0.60
2023-03-10T12:46:42.313Z,0.40
2023-03-10T12:49:29.184Z,0.60
2023-03-10T12:52:03.054Z,0.47
2023-03-10T12:54:51.734Z,0.67
2023-03-10T12:57:24.925Z,0.40
2023-03-10T12:59:59.621Z,0.40
2023-03-10T13:02:44.054Z,0.50
2023-03-10T13:05:21.656Z,0.40
2023-03-10T13:07:54.952Z,0.60
2023-03-10T13:10:27.768Z,1.30
2023-03-10T13:13:02.345Z,0.40
2023-03-10T13:15:34.189Z,0.60
2023-03-10T13:18:20.610Z,0.70
2023-03-10T13:20:49.500Z,0.50
2023-03-10T13:23:29.519Z,0.60
2023-03-10T13:26:02.916Z,0.80
2023-03-10T13:28:34.606Z,0.40
2023-03-10T13:31:12.723Z,0.40
2023-03-10T13:33:52.326Z,0.43
2023-03-10T13:36:25.649Z,0.90
2023-03-10T13:38:54.883Z,0.50
2023-03-10T13:41:30.310Z,0.50
2023-03-10T13:43:58.859Z,0.40
2023-03-10T13:46:28.463Z,0.47
2023-03-10T13:48:58.358Z,0.60
2023-03-10T13:51:36.263Z,0.50
2023-03-10T13:54:21.169Z,0.50
2023-03-10T13:56:51.492Z,0.63
2023-03-10T13:59:28.885Z,0.83
2023-03-10T14:02:02.894Z,0.40
2023-03-10T14:04:44.802Z,0.60
2023-03-10T14:07:14.879Z,0.50
2023-03-10T14:09:46.068Z,0.40
2023-03-10T14:12:19.154Z,0.33
2023-03-10T14:14:46.971Z,0.30
2023-03-10T14:17:34.038Z,0.50
2023-03-10T14:20:02.209Z,0.40
2023-03-10T14:22:40.594Z,0.30
2023-03-10T14:25:13.919Z,0.40
2023-03-10T14:27:45.362Z,0.43
2023-03-10T14:30:22.281Z,0.70
2023-03-10T14:32:55.792Z,0.40
2023-03-10T14:35:29.587Z,0.90
2023-03-10T14:37:58.374Z,0.77
2023-03-10T14:40:27.524Z,0.50
2023-03-10T14:43:00.563Z,0.40
2023-03-10T14:45:31.374Z,0.40
2023-03-10T14:48:02.901Z,0.50
2023-03-10T14:50:33.128Z,0.57
2023-03-10T14:53:03.866Z,0.50
2023-03-10T14:55:34.756Z,0.40
2023-03-10T14:58:07.673Z,0.37
2023-03-10T15:00:45.853Z,1.00
2023-03-10T15:03:17.416Z,0.70
2023-03-10T15:05:50.296Z,0.80
2023-03-10T15:08:18.839Z,0.50
2023-03-10T15:10:59.195Z,0.47
2023-03-10T15:13:29.139Z,0.50
2023-03-10T15:15:57.131Z,0.70
2023-03-10T15:18:28.759Z,0.30
2023-03-10T15:21:01.685Z,0.30
2023-03-10T15:23:29.852Z,0.40
2023-03-10T15:26:03.927Z,0.80
2023-03-10T15:28:37.372Z,0.83
2023-03-10T15:31:06.604Z,0.97
2023-03-10T15:33:34.829Z,0.90
2023-03-10T15:36:06.217Z,1.47
2023-03-10T15:38:34.236Z,0.87
2023-03-10T15:41:05.746Z,0.97
2023-03-10T15:43:43.980Z,2.10
2023-03-10T15:46:15.543Z,0.83
2023-03-10T15:48:43.486Z,1.13
2023-03-10T15:51:18.006Z,0.97
2023-03-10T15:53:45.990Z,1.43
2023-03-10T15:56:17.519Z,1.20
2023-03-10T15:58:51.808Z,1.40
2023-03-10T16:01:24.309Z,1.10
2023-03-10T16:03:56.871Z,1.63
2023-03-10T16:06:27.569Z,0.83
2023-03-10T16:08:58.291Z,1.13
2023-03-10T16:11:29.007Z,2.00
2023-03-10T16:13:58.596Z,1.23
2023-03-10T16:16:27.464Z,0.97
2023-03-10T16:18:58.079Z,1.10
2023-03-10T16:21:28.760Z,1.70
2023-03-10T16:23:57.828Z,1.80
2023-03-10T16:26:29.412Z,1.67
2023-03-10T16:29:04.161Z,1.30
2023-03-10T16:31:32.400Z,1.37
2023-03-10T16:34:02.586Z,1.30
2023-03-10T16:36:36.895Z,2.17
2023-03-10T16:39:12.375Z,2.60
2023-03-10T16:41:40.366Z,1.60
2023-03-10T16:44:12.828Z,1.47
2023-03-10T16:46:45.719Z,1.37
2023-03-10T16:49:17.833Z,1.53
2023-03-10T16:51:48.061Z,1.40
2023-03-10T16:54:17.395Z,1.90
2023-03-10T16:56:47.658Z,1.37
2023-03-10T16:59:18.931Z,2.13
2023-03-10T17:01:47.177Z,1.30
2023-03-10T17:04:17.253Z,1.70
2023-03-10T17:06:48.840Z,1.67
2023-03-10T17:09:18.761Z,1.00
2023-03-10T17:11:54.821Z,1.80
2023-03-10T17:14:25.653Z,1.67
2023-03-10T17:16:58.592Z,1.40
2023-03-10T17:19:30.480Z,1.63
2023-03-10T17:22:05.063Z,1.80
2023-03-10T17:24:34.701Z,2.90
2023-03-10T17:27:02.754Z,1.70
2023-03-10T17:29:31.909Z,1.53
2023-03-10T17:31:59.898Z,1.63
2023-03-10T17:34:30.319Z,1.53
2023-03-10T17:36:58.823Z,1.30
2023-03-10T17:39:46.097Z,1.23
2023-03-10T17:42:16.054Z,1.70
2023-03-10T17:44:46.941Z,1.33
2023-03-10T17:47:18.356Z,1.53
2023-03-10T17:49:47.843Z,2.37
2023-03-10T17:52:15.947Z,1.40
2023-03-10T17:54:46.500Z,1.97
2023-03-10T17:57:17.161Z,1.20
2023-03-10T17:59:47.561Z,1.60
2023-03-10T18:02:20.728Z,1.27
2023-03-10T18:04:48.672Z,2.50
2023-03-10T18:07:18.820Z,1.97
2023-03-10T18:09:49.690Z,1.80
2023-03-10T18:12:17.895Z,1.30
2023-03-10T18:14:55.249Z,1.93
2023-03-10T18:17:23.243Z,1.60
2023-03-10T18:19:52.487Z,1.67
2023-03-10T18:22:23.337Z,1.30
2023-03-10T18:24:51.134Z,2.00
2023-03-10T18:27:19.275Z,1.53
2023-03-10T18:29:51.619Z,1.50
2023-03-10T18:32:26.094Z,1.50
2023-03-10T18:34:59.191Z,1.70
2023-03-10T18:37:26.985Z,1.77
2023-03-10T18:39:55.202Z,1.10
2023-03-10T18:42:23.291Z,1.53
2023-03-10T18:44:51.245Z,1.73
2023-03-10T18:47:20.688Z,1.40
2023-03-10T18:49:49.304Z,2.23
2023-03-10T18:52:17.301Z,1.90
2023-03-10T18:54:49.615Z,2.23
2023-03-10T18:57:23.798Z,1.60
2023-03-10T18:59:54.508Z,1.90
2023-03-10T19:02:24.433Z,1.77
2023-03-10T19:04:53.363Z,1.43
2023-03-10T19:07:21.541Z,1.97
2023-03-10T19:09:54.090Z,2.00
2023-03-10T19:12:25.064Z,1.90
2023-03-10T19:14:56.067Z,1.60
2023-03-10T19:17:27.813Z,2.17
2023-03-10T19:19:58.576Z,1.90
2023-03-10T19:22:26.383Z,2.27
2023-03-10T19:24:54.463Z,2.00
2023-03-10T19:27:22.601Z,2.70
2023-03-10T19:29:52.490Z,2.20
2023-03-10T19:32:21.713Z,2.97
2023-03-10T19:34:52.337Z,2.30
2023-03-10T19:37:30.344Z,2.37
2023-03-10T19:39:59.844Z,1.70
2023-03-10T19:42:27.665Z,1.97
2023-03-10T19:44:55.703Z,2.00
2023-03-10T19:47:23.936Z,1.77
2023-03-10T19:49:53.108Z,1.83
2023-03-10T19:52:20.883Z,1.83
2023-03-10T19:54:50.273Z,1.87
2023-03-10T19:57:18.111Z,1.27
2023-03-10T19:59:48.070Z,1.70
2023-03-10T20:02:18.310Z,1.80
2023-03-10T20:04:47.736Z,1.67
2023-03-10T20:07:20.494Z,2.60
2023-03-10T20:09:49.555Z,1.43
2023-03-10T20:12:21.617Z,1.53
2023-03-10T20:14:54.917Z,2.00
2023-03-10T20:17:22.713Z,2.10
2023-03-10T20:19:50.560Z,2.17
2023-03-10T20:22:25.863Z,1.93
2023-03-10T20:25:00.167Z,1.80
2023-03-10T20:27:28.484Z,2.00
2023-03-10T20:29:56.578Z,2.47
2023-03-10T20:32:27.030Z,2.50
2023-03-10T20:34:55.226Z,2.47
2023-03-10T20:37:27.677Z,1.77
2023-03-10T20:39:57.335Z,1.70
2023-03-10T20:42:43.048Z,1.17
2023-03-10T20:45:14.925Z,1.50
2023-03-10T20:47:43.882Z,1.30
2023-03-10T20:50:15.065Z,1.83
2023-03-10T20:52:46.987Z,1.40
2023-03-10T20:55:19.706Z,0.97
2023-03-10T20:57:48.557Z,1.50
2023-03-10T21:00:18.473Z,1.00
2023-03-10T21:02:46.601Z,1.70
2023-03-10T21:05:14.544Z,1.27
2023-03-10T21:07:50.050Z,1.90
2023-03-10T21:10:19.384Z,2.17
2023-03-10T21:12:47.576Z,3.43
2023-03-10T21:15:17.131Z,2.70
2023-03-10T21:17:50.628Z,2.07
2023-03-10T21:20:21.899Z,2.23
2023-03-10T21:22:55.067Z,3.00
2023-03-10T21:25:28.218Z,1.83
2023-03-10T21:27:58.955Z,2.20
2023-03-10T21:30:32.598Z,1.97
2023-03-10T21:33:04.050Z,2.13
2023-03-10T21:35:34.479Z,1.80
2023-03-10T21:38:03.706Z,1.50
2023-03-10T21:40:33.595Z,1.77
2023-03-10T21:43:04.681Z,1.87
2023-03-10T21:45:37.430Z,2.20
2023-03-10T21:48:06.360Z,2.03
2023-03-10T21:50:42.932Z,2.50
2023-03-10T21:53:15.075Z,2.37
2023-03-10T21:55:42.921Z,2.60
2023-03-10T21:58:10.813Z,2.10
2023-03-10T22:00:41.890Z,2.27
2023-03-10T22:03:14.864Z,1.80
2023-03-10T22:05:45.019Z,1.90
2023-03-10T22:08:15.229Z,1.70
2023-03-10T22:10:46.693Z,1.90
2023-03-10T22:13:14.608Z,1.47
2023-03-10T22:15:42.557Z,1.80
2023-03-10T22:18:10.555Z,1.63
2023-03-10T22:20:38.331Z,1.90
2023-03-10T22:23:08.813Z,1.40
2023-03-10T22:25:41.607Z,1.63
2023-03-10T22:28:30.538Z,2.03
2023-03-10T22:31:01.400Z,2.00
2023-03-10T22:33:29.645Z,1.83
2023-03-10T22:36:02.662Z,1.50
2023-03-10T22:38:35.981Z,1.33
2023-03-10T22:41:13.841Z,1.83
2023-03-10T22:43:41.942Z,2.30
2023-03-10T22:46:11.713Z,2.07
2023-03-10T22:48:39.917Z,1.67
2023-03-10T22:51:08.944Z,2.30
2023-03-10T22:53:40.117Z,1.60
2023-03-10T22:56:08.507Z,1.50
2023-03-10T22:58:44.040Z,1.77
2023-03-10T23:01:12.198Z,1.27
2023-03-10T23:03:45.758Z,1.43
2023-03-10T23:06:14.576Z,1.60
2023-03-10T23:08:43.719Z,1.40
2023-03-10T23:11:11.954Z,1.57
2023-03-10T23:13:42.913Z,1.80
2023-03-10T23:16:11.092Z,1.00
2023-03-10T23:18:41.950Z,1.50
2023-03-10T23:21:12.764Z,1.20
2023-03-10T23:23:43.673Z,1.40
2023-03-10T23:26:15.261Z,1.23
2023-03-10T23:28:44.382Z,1.57
2023-03-10T23:31:25.966Z,1.43
2023-03-10T23:33:57.996Z,1.10
2023-03-10T23:36:25.815Z,1.30
2023-03-10T23:38:55.076Z,1.30
2023-03-10T23:41:33.434Z,1.30
2023-03-10T23:44:03.287Z,1.20
2023-03-10T23:46:34.342Z,1.27
2023-03-10T23:49:13.627Z,1.10
2023-03-10T23:51:41.775Z,1.80
2023-03-10T23:54:22.850Z,1.20
2023-03-10T23:56:53.384Z,1.50
2023-03-10T23:59:23.732Z,1.90
